sensor_id;sensor_type;location;lat;lon;timestamp;P1;durP1;ratioP1;P2;durP2;ratioP2
11220;SDS011;8517;53.546;10.104;2024-01-30T00:01:48;10.67;;;6.37;;
11220;SDS011;8517;53.546;10.104;2024-01-30T00:04:14;7.77;;;6.43;;
11220;SDS011;8517;53.546;10.104;2024-01-30T00:06:41;9.43;;;6.50;;
11220;SDS011;8517;53.546;10.104;2024-01-30T00:09:09;8.97;;;6.90;;
11220;SDS011;8517;53.546;10.104;2024-01-30T00:11:36;8.17;;;6.20;;
11220;SDS011;8517;53.546;10.104;2024-01-30T00:14:03;9.53;;;6.37;;
11220;SDS011;8517;53.546;10.104;2024-01-30T00:16:30;6.90;;;6.10;;
11220;SDS011;8517;53.546;10.104;2024-01-30T00:18:57;9.47;;;6.67;;
11220;SDS011;8517;53.546;10.104;2024-01-30T00:21:24;8.63;;;6.30;;
11220;SDS011;8517;53.546;10.104;2024-01-30T00:23:51;7.80;;;6.40;;
11220;SDS011;8517;53.546;10.104;2024-01-30T00:26:19;8.20;;;5.80;;
11220;SDS011;8517;53.546;10.104;2024-01-30T00:28:46;8.73;;;6.50;;
11220;SDS011;8517;53.546;10.104;2024-01-30T00:31:13;8.73;;;6.57;;
11220;SDS011;8517;53.546;10.104;2024-01-30T00:33:40;8.60;;;6.43;;
11220;SDS011;8517;53.546;10.104;2024-01-30T00:36:07;9.17;;;7.03;;
11220;SDS011;8517;53.546;10.104;2024-01-30T00:38:35;6.70;;;5.93;;
11220;SDS011;8517;53.546;10.104;2024-01-30T00:41:02;10.03;;;5.93;;
11220;SDS011;8517;53.546;10.104;2024-01-30T00:43:30;8.07;;;6.37;;
11220;SDS011;8517;53.546;10.104;2024-01-30T00:45:58;7.03;;;6.33;;
11220;SDS011;8517;53.546;10.104;2024-01-30T00:48:24;8.87;;;6.80;;
11220;SDS011;8517;53.546;10.104;2024-01-30T00:50:51;9.10;;;6.73;;
11220;SDS011;8517;53.546;10.104;2024-01-30T00:53:18;8.13;;;6.33;;
11220;SDS011;8517;53.546;10.104;2024-01-30T00:55:45;7.27;;;5.83;;
11220;SDS011;8517;53.546;10.104;2024-01-30T00:58:12;6.93;;;5.90;;
11220;SDS011;8517;53.546;10.104;2024-01-30T01:00:40;6.93;;;5.83;;
11220;SDS011;8517;53.546;10.104;2024-01-30T01:03:07;7.00;;;6.30;;
11220;SDS011;8517;53.546;10.104;2024-01-30T01:05:34;7.63;;;6.27;;
11220;SDS011;8517;53.546;10.104;2024-01-30T01:08:00;9.80;;;6.30;;
11220;SDS011;8517;53.546;10.104;2024-01-30T01:10:27;8.37;;;6.60;;
11220;SDS011;8517;53.546;10.104;2024-01-30T01:12:54;7.67;;;6.00;;
11220;SDS011;8517;53.546;10.104;2024-01-30T01:15:21;8.07;;;6.30;;
11220;SDS011;8517;53.546;10.104;2024-01-30T01:18:05;8.23;;;6.10;;
11220;SDS011;8517;53.546;10.104;2024-01-30T01:21:00;8.60;;;6.20;;
11220;SDS011;8517;53.546;10.104;2024-01-30T01:23:32;8.67;;;6.23;;
11220;SDS011;8517;53.546;10.104;2024-01-30T01:26:03;9.53;;;6.97;;
11220;SDS011;8517;53.546;10.104;2024-01-30T01:28:30;7.33;;;6.30;;
11220;SDS011;8517;53.546;10.104;2024-01-30T01:30:57;8.57;;;6.53;;
11220;SDS011;8517;53.546;10.104;2024-01-30T01:33:31;8.63;;;6.37;;
11220;SDS011;8517;53.546;10.104;2024-01-30T01:35:58;8.23;;;7.30;;
11220;SDS011;8517;53.546;10.104;2024-01-30T01:38:27;10.87;;;6.87;;
11220;SDS011;8517;53.546;10.104;2024-01-30T01:44:14;8.13;;;6.77;;
11220;SDS011;8517;53.546;10.104;2024-01-30T01:46:44;10.67;;;7.00;;
11220;SDS011;8517;53.546;10.104;2024-01-30T01:49:12;6.53;;;5.93;;
11220;SDS011;8517;53.546;10.104;2024-01-30T01:51:49;10.13;;;6.20;;
11220;SDS011;8517;53.546;10.104;2024-01-30T01:54:17;8.83;;;6.77;;
11220;SDS011;8517;53.546;10.104;2024-01-30T01:56:45;10.33;;;6.53;;
11220;SDS011;8517;53.546;10.104;2024-01-30T01:59:12;7.40;;;6.60;;
11220;SDS011;8517;53.546;10.104;2024-01-30T02:01:39;7.70;;;6.33;;
11220;SDS011;8517;53.546;10.104;2024-01-30T02:04:06;8.50;;;6.83;;
11220;SDS011;8517;53.546;10.104;2024-01-30T02:06:35;8.03;;;6.73;;
11220;SDS011;8517;53.546;10.104;2024-01-30T02:09:02;9.17;;;7.07;;
11220;SDS011;8517;53.546;10.104;2024-01-30T02:11:29;10.00;;;6.87;;
11220;SDS011;8517;53.546;10.104;2024-01-30T02:13:57;8.97;;;6.53;;
11220;SDS011;8517;53.546;10.104;2024-01-30T02:16:28;10.50;;;6.47;;
11220;SDS011;8517;53.546;10.104;2024-01-30T02:18:55;8.97;;;6.17;;
11220;SDS011;8517;53.546;10.104;2024-01-30T02:21:23;9.23;;;6.83;;
11220;SDS011;8517;53.546;10.104;2024-01-30T02:23:51;9.37;;;7.07;;
11220;SDS011;8517;53.546;10.104;2024-01-30T02:26:20;8.83;;;7.10;;
11220;SDS011;8517;53.546;10.104;2024-01-30T02:28:47;10.10;;;7.33;;
11220;SDS011;8517;53.546;10.104;2024-01-30T02:31:14;9.07;;;7.00;;
11220;SDS011;8517;53.546;10.104;2024-01-30T02:33:41;8.40;;;6.43;;
11220;SDS011;8517;53.546;10.104;2024-01-30T02:36:07;8.73;;;7.17;;
11220;SDS011;8517;53.546;10.104;2024-01-30T02:38:36;9.77;;;6.70;;
11220;SDS011;8517;53.546;10.104;2024-01-30T02:41:02;8.87;;;7.27;;
11220;SDS011;8517;53.546;10.104;2024-01-30T02:43:29;9.80;;;7.10;;
11220;SDS011;8517;53.546;10.104;2024-01-30T02:45:56;7.90;;;7.07;;
11220;SDS011;8517;53.546;10.104;2024-01-30T02:48:24;7.57;;;6.63;;
11220;SDS011;8517;53.546;10.104;2024-01-30T02:50:51;8.00;;;6.90;;
11220;SDS011;8517;53.546;10.104;2024-01-30T02:53:18;7.70;;;6.83;;
11220;SDS011;8517;53.546;10.104;2024-01-30T02:55:46;8.53;;;6.80;;
11220;SDS011;8517;53.546;10.104;2024-01-30T02:58:13;8.90;;;7.63;;
11220;SDS011;8517;53.546;10.104;2024-01-30T03:00:40;8.03;;;7.10;;
11220;SDS011;8517;53.546;10.104;2024-01-30T03:03:06;7.97;;;7.13;;
11220;SDS011;8517;53.546;10.104;2024-01-30T03:05:33;9.97;;;7.63;;
11220;SDS011;8517;53.546;10.104;2024-01-30T03:08:00;8.63;;;7.33;;
11220;SDS011;8517;53.546;10.104;2024-01-30T03:10:27;8.70;;;7.80;;
11220;SDS011;8517;53.546;10.104;2024-01-30T03:12:55;11.53;;;7.60;;
11220;SDS011;8517;53.546;10.104;2024-01-30T03:15:22;9.60;;;7.23;;
11220;SDS011;8517;53.546;10.104;2024-01-30T03:17:49;12.83;;;8.17;;
11220;SDS011;8517;53.546;10.104;2024-01-30T03:20:15;9.87;;;7.70;;
11220;SDS011;8517;53.546;10.104;2024-01-30T03:22:42;10.27;;;7.70;;
11220;SDS011;8517;53.546;10.104;2024-01-30T03:25:10;12.40;;;7.67;;
11220;SDS011;8517;53.546;10.104;2024-01-30T03:27:37;10.87;;;8.10;;
11220;SDS011;8517;53.546;10.104;2024-01-30T03:30:06;11.53;;;7.67;;
11220;SDS011;8517;53.546;10.104;2024-01-30T03:32:33;9.57;;;7.73;;
11220;SDS011;8517;53.546;10.104;2024-01-30T03:35:00;10.13;;;7.80;;
11220;SDS011;8517;53.546;10.104;2024-01-30T03:37:27;10.77;;;7.47;;
11220;SDS011;8517;53.546;10.104;2024-01-30T03:39:53;11.00;;;7.97;;
11220;SDS011;8517;53.546;10.104;2024-01-30T03:42:20;10.37;;;8.63;;
11220;SDS011;8517;53.546;10.104;2024-01-30T03:44:48;10.33;;;7.67;;
11220;SDS011;8517;53.546;10.104;2024-01-30T03:47:18;9.87;;;8.23;;
11220;SDS011;8517;53.546;10.104;2024-01-30T03:49:45;10.20;;;8.20;;
11220;SDS011;8517;53.546;10.104;2024-01-30T03:52:12;13.80;;;7.80;;
11220;SDS011;8517;53.546;10.104;2024-01-30T03:54:39;10.20;;;8.50;;
11220;SDS011;8517;53.546;10.104;2024-01-30T03:57:06;10.83;;;8.40;;
11220;SDS011;8517;53.546;10.104;2024-01-30T03:59:32;10.80;;;9.07;;
11220;SDS011;8517;53.546;10.104;2024-01-30T04:01:59;10.93;;;8.90;;
11220;SDS011;8517;53.546;10.104;2024-01-30T04:04:27;11.20;;;7.83;;
11220;SDS011;8517;53.546;10.104;2024-01-30T04:06:54;10.30;;;7.47;;
11220;SDS011;8517;53.546;10.104;2024-01-30T04:09:21;12.07;;;8.53;;
11220;SDS011;8517;53.546;10.104;2024-01-30T04:11:48;11.43;;;8.53;;
11220;SDS011;8517;53.546;10.104;2024-01-30T04:14:15;11.13;;;8.83;;
11220;SDS011;8517;53.546;10.104;2024-01-30T04:16:41;11.43;;;9.20;;
11220;SDS011;8517;53.546;10.104;2024-01-30T04:19:08;12.83;;;8.70;;
11220;SDS011;8517;53.546;10.104;2024-01-30T04:21:36;10.03;;;8.87;;
11220;SDS011;8517;53.546;10.104;2024-01-30T04:24:03;10.50;;;8.20;;
11220;SDS011;8517;53.546;10.104;2024-01-30T04:26:31;10.57;;;8.97;;
11220;SDS011;8517;53.546;10.104;2024-01-30T04:28:58;11.90;;;8.77;;
11220;SDS011;8517;53.546;10.104;2024-01-30T04:31:24;11.47;;;8.40;;
11220;SDS011;8517;53.546;10.104;2024-01-30T04:33:51;10.83;;;9.03;;
11220;SDS011;8517;53.546;10.104;2024-01-30T04:36:18;10.33;;;9.13;;
11220;SDS011;8517;53.546;10.104;2024-01-30T04:38:46;11.80;;;9.47;;
11220;SDS011;8517;53.546;10.104;2024-01-30T04:41:13;10.60;;;8.57;;
11220;SDS011;8517;53.546;10.104;2024-01-30T04:43:40;11.67;;;9.60;;
11220;SDS011;8517;53.546;10.104;2024-01-30T04:46:06;11.70;;;9.50;;
11220;SDS011;8517;53.546;10.104;2024-01-30T04:48:33;14.07;;;10.00;;
11220;SDS011;8517;53.546;10.104;2024-01-30T04:51:00;12.53;;;9.10;;
11220;SDS011;8517;53.546;10.104;2024-01-30T04:53:29;12.40;;;9.17;;
11220;SDS011;8517;53.546;10.104;2024-01-30T04:55:57;10.87;;;8.67;;
11220;SDS011;8517;53.546;10.104;2024-01-30T04:58:24;12.90;;;9.77;;
11220;SDS011;8517;53.546;10.104;2024-01-30T05:00:51;12.37;;;9.60;;
11220;SDS011;8517;53.546;10.104;2024-01-30T05:03:18;11.93;;;9.10;;
11220;SDS011;8517;53.546;10.104;2024-01-30T05:05:47;10.20;;;8.63;;
11220;SDS011;8517;53.546;10.104;2024-01-30T05:08:14;11.40;;;9.73;;
11220;SDS011;8517;53.546;10.104;2024-01-30T05:10:41;11.87;;;10.17;;
11220;SDS011;8517;53.546;10.104;2024-01-30T05:13:09;11.50;;;9.30;;
11220;SDS011;8517;53.546;10.104;2024-01-30T05:15:38;12.13;;;9.57;;
11220;SDS011;8517;53.546;10.104;2024-01-30T05:18:05;10.73;;;9.63;;
11220;SDS011;8517;53.546;10.104;2024-01-30T05:20:32;11.67;;;9.70;;
11220;SDS011;8517;53.546;10.104;2024-01-30T05:22:59;10.97;;;9.20;;
11220;SDS011;8517;53.546;10.104;2024-01-30T05:25:25;12.37;;;9.80;;
11220;SDS011;8517;53.546;10.104;2024-01-30T05:27:52;11.13;;;8.87;;
11220;SDS011;8517;53.546;10.104;2024-01-30T05:30:21;10.80;;;9.37;;
11220;SDS011;8517;53.546;10.104;2024-01-30T05:32:48;10.07;;;8.97;;
11220;SDS011;8517;53.546;10.104;2024-01-30T05:35:15;14.57;;;9.87;;
11220;SDS011;8517;53.546;10.104;2024-01-30T05:37:42;11.97;;;9.77;;
11220;SDS011;8517;53.546;10.104;2024-01-30T05:40:09;22.47;;;13.97;;
11220;SDS011;8517;53.546;10.104;2024-01-30T05:42:37;18.37;;;14.77;;
11220;SDS011;8517;53.546;10.104;2024-01-30T05:45:04;11.70;;;9.90;;
11220;SDS011;8517;53.546;10.104;2024-01-30T05:47:32;13.60;;;10.13;;
11220;SDS011;8517;53.546;10.104;2024-01-30T05:49:59;47.93;;;36.40;;
11220;SDS011;8517;53.546;10.104;2024-01-30T05:52:26;18.60;;;10.73;;
11220;SDS011;8517;53.546;10.104;2024-01-30T05:54:53;13.53;;;10.43;;
11220;SDS011;8517;53.546;10.104;2024-01-30T05:57:19;13.53;;;9.87;;
11220;SDS011;8517;53.546;10.104;2024-01-30T05:59:46;10.93;;;9.80;;
11220;SDS011;8517;53.546;10.104;2024-01-30T06:02:13;12.97;;;10.33;;
11220;SDS011;8517;53.546;10.104;2024-01-30T06:04:41;13.97;;;10.00;;
11220;SDS011;8517;53.546;10.104;2024-01-30T06:07:09;13.73;;;10.67;;
11220;SDS011;8517;53.546;10.104;2024-01-30T06:09:36;11.80;;;10.27;;
11220;SDS011;8517;53.546;10.104;2024-01-30T06:12:04;13.70;;;10.70;;
11220;SDS011;8517;53.546;10.104;2024-01-30T06:14:32;12.40;;;9.83;;
11220;SDS011;8517;53.546;10.104;2024-01-30T06:16:59;13.77;;;11.07;;
11220;SDS011;8517;53.546;10.104;2024-01-30T06:19:25;13.87;;;9.90;;
11220;SDS011;8517;53.546;10.104;2024-01-30T06:21:53;11.13;;;9.40;;
11220;SDS011;8517;53.546;10.104;2024-01-30T06:24:20;14.90;;;10.03;;
11220;SDS011;8517;53.546;10.104;2024-01-30T06:26:47;13.20;;;10.87;;
11220;SDS011;8517;53.546;10.104;2024-01-30T06:29:14;13.33;;;10.47;;
11220;SDS011;8517;53.546;10.104;2024-01-30T06:31:41;14.57;;;10.87;;
11220;SDS011;8517;53.546;10.104;2024-01-30T06:34:08;11.37;;;10.17;;
11220;SDS011;8517;53.546;10.104;2024-01-30T06:36:36;13.17;;;10.27;;
11220;SDS011;8517;53.546;10.104;2024-01-30T06:39:04;14.03;;;10.83;;
11220;SDS011;8517;53.546;10.104;2024-01-30T06:41:31;13.87;;;11.17;;
11220;SDS011;8517;53.546;10.104;2024-01-30T06:43:58;13.10;;;10.50;;
11220;SDS011;8517;53.546;10.104;2024-01-30T06:46:25;12.93;;;10.80;;
11220;SDS011;8517;53.546;10.104;2024-01-30T06:48:52;11.67;;;10.47;;
11220;SDS011;8517;53.546;10.104;2024-01-30T06:51:19;12.13;;;10.83;;
11220;SDS011;8517;53.546;10.104;2024-01-30T06:53:46;14.53;;;11.43;;
11220;SDS011;8517;53.546;10.104;2024-01-30T06:56:14;12.90;;;10.70;;
11220;SDS011;8517;53.546;10.104;2024-01-30T06:58:45;12.27;;;10.37;;
11220;SDS011;8517;53.546;10.104;2024-01-30T07:01:12;14.53;;;10.90;;
11220;SDS011;8517;53.546;10.104;2024-01-30T07:03:40;11.57;;;10.00;;
11220;SDS011;8517;53.546;10.104;2024-01-30T07:06:07;14.50;;;10.77;;
11220;SDS011;8517;53.546;10.104;2024-01-30T07:08:33;12.57;;;10.50;;
11220;SDS011;8517;53.546;10.104;2024-01-30T07:11:00;12.13;;;10.70;;
11220;SDS011;8517;53.546;10.104;2024-01-30T07:13:28;13.27;;;10.67;;
11220;SDS011;8517;53.546;10.104;2024-01-30T07:15:55;14.93;;;11.20;;
11220;SDS011;8517;53.546;10.104;2024-01-30T07:18:22;13.20;;;11.07;;
11220;SDS011;8517;53.546;10.104;2024-01-30T07:20:49;13.57;;;10.70;;
11220;SDS011;8517;53.546;10.104;2024-01-30T07:23:16;15.00;;;11.50;;
11220;SDS011;8517;53.546;10.104;2024-01-30T07:25:43;12.27;;;10.13;;
11220;SDS011;8517;53.546;10.104;2024-01-30T07:28:10;14.97;;;11.23;;
11220;SDS011;8517;53.546;10.104;2024-01-30T07:30:40;12.40;;;10.23;;
11220;SDS011;8517;53.546;10.104;2024-01-30T07:33:07;13.90;;;10.60;;
11220;SDS011;8517;53.546;10.104;2024-01-30T07:35:34;14.50;;;11.07;;
11220;SDS011;8517;53.546;10.104;2024-01-30T07:38:01;14.37;;;11.63;;
11220;SDS011;8517;53.546;10.104;2024-01-30T07:40:28;13.37;;;11.10;;
11220;SDS011;8517;53.546;10.104;2024-01-30T07:42:55;15.50;;;11.53;;
11220;SDS011;8517;53.546;10.104;2024-01-30T07:45:22;16.23;;;11.87;;
11220;SDS011;8517;53.546;10.104;2024-01-30T07:47:51;16.13;;;11.67;;
11220;SDS011;8517;53.546;10.104;2024-01-30T07:50:18;14.97;;;11.53;;
11220;SDS011;8517;53.546;10.104;2024-01-30T07:52:45;17.17;;;12.30;;
11220;SDS011;8517;53.546;10.104;2024-01-30T07:55:16;15.07;;;10.87;;
11220;SDS011;8517;53.546;10.104;2024-01-30T08:03:55;18.33;;;12.53;;
11220;SDS011;8517;53.546;10.104;2024-01-30T08:06:21;14.17;;;11.67;;
11220;SDS011;8517;53.546;10.104;2024-01-30T08:08:48;39.73;;;29.93;;
11220;SDS011;8517;53.546;10.104;2024-01-30T08:11:18;16.80;;;13.50;;
11220;SDS011;8517;53.546;10.104;2024-01-30T08:13:50;18.53;;;12.73;;
11220;SDS011;8517;53.546;10.104;2024-01-30T08:16:17;16.00;;;12.67;;
11220;SDS011;8517;53.546;10.104;2024-01-30T08:18:44;17.30;;;12.40;;
11220;SDS011;8517;53.546;10.104;2024-01-30T08:21:12;16.83;;;12.50;;
11220;SDS011;8517;53.546;10.104;2024-01-30T08:23:38;14.60;;;12.57;;
11220;SDS011;8517;53.546;10.104;2024-01-30T08:26:05;14.57;;;12.17;;
11220;SDS011;8517;53.546;10.104;2024-01-30T08:28:32;15.87;;;12.80;;
11220;SDS011;8517;53.546;10.104;2024-01-30T08:30:58;14.83;;;12.50;;
11220;SDS011;8517;53.546;10.104;2024-01-30T08:33:25;16.70;;;13.10;;
11220;SDS011;8517;53.546;10.104;2024-01-30T08:35:52;16.97;;;12.80;;
11220;SDS011;8517;53.546;10.104;2024-01-30T08:38:20;17.70;;;13.70;;
11220;SDS011;8517;53.546;10.104;2024-01-30T08:40:47;17.63;;;14.00;;
11220;SDS011;8517;53.546;10.104;2024-01-30T08:43:14;17.40;;;12.90;;
11220;SDS011;8517;53.546;10.104;2024-01-30T08:45:40;16.20;;;12.47;;
11220;SDS011;8517;53.546;10.104;2024-01-30T08:48:08;15.50;;;12.83;;
11220;SDS011;8517;53.546;10.104;2024-01-30T08:50:35;16.17;;;13.10;;
11220;SDS011;8517;53.546;10.104;2024-01-30T08:53:01;16.23;;;12.60;;
11220;SDS011;8517;53.546;10.104;2024-01-30T08:55:30;17.07;;;13.33;;
11220;SDS011;8517;53.546;10.104;2024-01-30T08:57:56;16.43;;;13.10;;
11220;SDS011;8517;53.546;10.104;2024-01-30T09:00:24;18.10;;;13.37;;
11220;SDS011;8517;53.546;10.104;2024-01-30T09:02:51;15.07;;;13.03;;
11220;SDS011;8517;53.546;10.104;2024-01-30T09:05:18;16.03;;;13.00;;
11220;SDS011;8517;53.546;10.104;2024-01-30T09:07:45;15.33;;;13.57;;
11220;SDS011;8517;53.546;10.104;2024-01-30T09:10:11;16.77;;;13.00;;
11220;SDS011;8517;53.546;10.104;2024-01-30T09:12:40;15.63;;;12.10;;
11220;SDS011;8517;53.546;10.104;2024-01-30T09:15:07;14.90;;;11.20;;
11220;SDS011;8517;53.546;10.104;2024-01-30T09:17:34;17.87;;;14.03;;
11220;SDS011;8517;53.546;10.104;2024-01-30T09:20:01;17.37;;;12.53;;
11220;SDS011;8517;53.546;10.104;2024-01-30T09:22:28;16.33;;;12.90;;
11220;SDS011;8517;53.546;10.104;2024-01-30T09:24:55;16.30;;;12.80;;
11220;SDS011;8517;53.546;10.104;2024-01-30T09:27:21;15.73;;;11.63;;
11220;SDS011;8517;53.546;10.104;2024-01-30T09:29:50;18.47;;;13.60;;
11220;SDS011;8517;53.546;10.104;2024-01-30T09:32:16;16.07;;;13.00;;
11220;SDS011;8517;53.546;10.104;2024-01-30T09:34:44;15.20;;;13.17;;
11220;SDS011;8517;53.546;10.104;2024-01-30T09:37:10;15.73;;;13.20;;
11220;SDS011;8517;53.546;10.104;2024-01-30T09:39:40;17.23;;;13.63;;
11220;SDS011;8517;53.546;10.104;2024-01-30T09:42:09;17.13;;;13.70;;
11220;SDS011;8517;53.546;10.104;2024-01-30T09:44:47;15.87;;;13.00;;
11220;SDS011;8517;53.546;10.104;2024-01-30T09:47:19;15.50;;;13.37;;
11220;SDS011;8517;53.546;10.104;2024-01-30T09:49:46;14.87;;;12.83;;
11220;SDS011;8517;53.546;10.104;2024-01-30T09:52:14;16.60;;;13.30;;
11220;SDS011;8517;53.546;10.104;2024-01-30T09:54:41;15.03;;;12.53;;
11220;SDS011;8517;53.546;10.104;2024-01-30T09:57:09;15.33;;;12.47;;
11220;SDS011;8517;53.546;10.104;2024-01-30T09:59:37;15.07;;;12.60;;
11220;SDS011;8517;53.546;10.104;2024-01-30T10:02:06;15.20;;;12.67;;
11220;SDS011;8517;53.546;10.104;2024-01-30T10:04:33;16.97;;;12.67;;
11220;SDS011;8517;53.546;10.104;2024-01-30T10:07:01;15.73;;;12.80;;
11220;SDS011;8517;53.546;10.104;2024-01-30T10:09:29;17.07;;;13.13;;
11220;SDS011;8517;53.546;10.104;2024-01-30T10:11:58;14.97;;;12.70;;
11220;SDS011;8517;53.546;10.104;2024-01-30T10:14:25;14.80;;;13.20;;
11220;SDS011;8517;53.546;10.104;2024-01-30T10:16:52;14.33;;;11.97;;
11220;SDS011;8517;53.546;10.104;2024-01-30T10:19:20;13.47;;;10.47;;
11220;SDS011;8517;53.546;10.104;2024-01-30T10:21:47;14.60;;;12.20;;
11220;SDS011;8517;53.546;10.104;2024-01-30T10:24:13;16.27;;;13.20;;
11220;SDS011;8517;53.546;10.104;2024-01-30T10:26:43;15.17;;;12.60;;
11220;SDS011;8517;53.546;10.104;2024-01-30T10:29:10;15.70;;;12.30;;
11220;SDS011;8517;53.546;10.104;2024-01-30T10:31:36;14.40;;;12.73;;
11220;SDS011;8517;53.546;10.104;2024-01-30T10:34:03;15.43;;;12.27;;
11220;SDS011;8517;53.546;10.104;2024-01-30T10:36:31;15.63;;;13.13;;
11220;SDS011;8517;53.546;10.104;2024-01-30T10:39:06;14.93;;;12.87;;
11220;SDS011;8517;53.546;10.104;2024-01-30T10:41:35;15.37;;;12.20;;
11220;SDS011;8517;53.546;10.104;2024-01-30T10:44:09;14.43;;;12.00;;
11220;SDS011;8517;53.546;10.104;2024-01-30T10:46:37;17.07;;;12.70;;
11220;SDS011;8517;53.546;10.104;2024-01-30T10:49:05;16.37;;;12.93;;
11220;SDS011;8517;53.546;10.104;2024-01-30T10:51:33;17.30;;;12.03;;
11220;SDS011;8517;53.546;10.104;2024-01-30T10:54:03;18.10;;;12.33;;
11220;SDS011;8517;53.546;10.104;2024-01-30T10:56:31;13.83;;;12.33;;
11220;SDS011;8517;53.546;10.104;2024-01-30T10:58:59;17.43;;;13.13;;
11220;SDS011;8517;53.546;10.104;2024-01-30T11:01:26;14.20;;;11.97;;
11220;SDS011;8517;53.546;10.104;2024-01-30T11:03:55;15.00;;;12.80;;
11220;SDS011;8517;53.546;10.104;2024-01-30T11:06:22;14.47;;;12.60;;
11220;SDS011;8517;53.546;10.104;2024-01-30T11:09:01;15.90;;;12.13;;
11220;SDS011;8517;53.546;10.104;2024-01-30T11:11:32;14.83;;;12.03;;
11220;SDS011;8517;53.546;10.104;2024-01-30T11:14:16;14.27;;;11.23;;
11220;SDS011;8517;53.546;10.104;2024-01-30T11:16:49;14.07;;;11.30;;
11220;SDS011;8517;53.546;10.104;2024-01-30T11:19:15;13.80;;;11.17;;
11220;SDS011;8517;53.546;10.104;2024-01-30T11:21:50;14.83;;;11.60;;
11220;SDS011;8517;53.546;10.104;2024-01-30T11:24:20;13.33;;;11.73;;
11220;SDS011;8517;53.546;10.104;2024-01-30T11:26:48;14.77;;;11.30;;
11220;SDS011;8517;53.546;10.104;2024-01-30T11:29:16;14.47;;;11.43;;
11220;SDS011;8517;53.546;10.104;2024-01-30T11:31:51;17.73;;;12.03;;
11220;SDS011;8517;53.546;10.104;2024-01-30T11:34:18;14.50;;;10.90;;
11220;SDS011;8517;53.546;10.104;2024-01-30T11:36:47;15.00;;;12.10;;
11220;SDS011;8517;53.546;10.104;2024-01-30T11:39:18;13.63;;;11.67;;
11220;SDS011;8517;53.546;10.104;2024-01-30T11:41:49;17.30;;;12.90;;
11220;SDS011;8517;53.546;10.104;2024-01-30T11:44:18;14.47;;;11.53;;
11220;SDS011;8517;53.546;10.104;2024-01-30T11:46:46;15.17;;;11.17;;
11220;SDS011;8517;53.546;10.104;2024-01-30T11:49:13;14.37;;;11.00;;
11220;SDS011;8517;53.546;10.104;2024-01-30T11:51:41;15.00;;;9.63;;
11220;SDS011;8517;53.546;10.104;2024-01-30T11:54:08;14.43;;;11.10;;
11220;SDS011;8517;53.546;10.104;2024-01-30T11:56:37;16.73;;;11.20;;
11220;SDS011;8517;53.546;10.104;2024-01-30T11:59:04;15.13;;;11.87;;
11220;SDS011;8517;53.546;10.104;2024-01-30T12:01:31;15.00;;;12.20;;
11220;SDS011;8517;53.546;10.104;2024-01-30T12:03:58;16.20;;;12.13;;
11220;SDS011;8517;53.546;10.104;2024-01-30T12:06:25;16.77;;;11.93;;
11220;SDS011;8517;53.546;10.104;2024-01-30T12:08:59;16.53;;;12.13;;
11220;SDS011;8517;53.546;10.104;2024-01-30T12:11:29;16.60;;;12.10;;
11220;SDS011;8517;53.546;10.104;2024-01-30T12:13:57;15.23;;;11.03;;
11220;SDS011;8517;53.546;10.104;2024-01-30T12:16:25;15.97;;;12.17;;
11220;SDS011;8517;53.546;10.104;2024-01-30T12:18:59;18.00;;;12.77;;
11220;SDS011;8517;53.546;10.104;2024-01-30T12:21:26;19.60;;;14.27;;
11220;SDS011;8517;53.546;10.104;2024-01-30T12:23:54;17.83;;;14.37;;
11220;SDS011;8517;53.546;10.104;2024-01-30T12:26:23;21.07;;;14.23;;
11220;SDS011;8517;53.546;10.104;2024-01-30T12:28:50;17.90;;;13.57;;
11220;SDS011;8517;53.546;10.104;2024-01-30T12:31:26;19.13;;;14.83;;
11220;SDS011;8517;53.546;10.104;2024-01-30T12:33:53;18.77;;;14.30;;
11220;SDS011;8517;53.546;10.104;2024-01-30T12:36:20;23.77;;;17.87;;
11220;SDS011;8517;53.546;10.104;2024-01-30T12:38:48;23.00;;;16.53;;
11220;SDS011;8517;53.546;10.104;2024-01-30T12:41:14;25.93;;;18.37;;
11220;SDS011;8517;53.546;10.104;2024-01-30T12:43:41;29.33;;;18.20;;
11220;SDS011;8517;53.546;10.104;2024-01-30T12:46:09;25.10;;;17.80;;
11220;SDS011;8517;53.546;10.104;2024-01-30T12:48:37;22.00;;;16.47;;
11220;SDS011;8517;53.546;10.104;2024-01-30T12:51:04;19.83;;;13.63;;
11220;SDS011;8517;53.546;10.104;2024-01-30T12:53:31;16.50;;;12.27;;
11220;SDS011;8517;53.546;10.104;2024-01-30T12:55:57;13.93;;;11.13;;
11220;SDS011;8517;53.546;10.104;2024-01-30T12:58:24;15.23;;;11.67;;
11220;SDS011;8517;53.546;10.104;2024-01-30T13:00:51;16.53;;;10.93;;
11220;SDS011;8517;53.546;10.104;2024-01-30T13:03:19;16.30;;;10.77;;
11220;SDS011;8517;53.546;10.104;2024-01-30T13:05:47;17.97;;;11.43;;
11220;SDS011;8517;53.546;10.104;2024-01-30T13:08:14;14.63;;;10.50;;
11220;SDS011;8517;53.546;10.104;2024-01-30T13:10:41;12.83;;;10.73;;
11220;SDS011;8517;53.546;10.104;2024-01-30T13:13:07;13.73;;;10.20;;
11220;SDS011;8517;53.546;10.104;2024-01-30T13:15:36;15.47;;;10.03;;
11220;SDS011;8517;53.546;10.104;2024-01-30T13:18:06;12.20;;;9.17;;
11220;SDS011;8517;53.546;10.104;2024-01-30T13:20:33;18.00;;;10.10;;
11220;SDS011;8517;53.546;10.104;2024-01-30T13:23:01;14.30;;;9.87;;
11220;SDS011;8517;53.546;10.104;2024-01-30T13:25:28;15.13;;;10.97;;
11220;SDS011;8517;53.546;10.104;2024-01-30T13:27:55;15.33;;;10.73;;
11220;SDS011;8517;53.546;10.104;2024-01-30T13:30:22;13.57;;;10.10;;
11220;SDS011;8517;53.546;10.104;2024-01-30T13:32:49;13.17;;;10.20;;
11220;SDS011;8517;53.546;10.104;2024-01-30T13:35:16;20.10;;;9.50;;
11220;SDS011;8517;53.546;10.104;2024-01-30T13:37:43;16.13;;;10.60;;
11220;SDS011;8517;53.546;10.104;2024-01-30T13:40:11;17.47;;;10.27;;
11220;SDS011;8517;53.546;10.104;2024-01-30T13:42:39;13.93;;;10.00;;
11220;SDS011;8517;53.546;10.104;2024-01-30T13:45:06;14.40;;;10.77;;
11220;SDS011;8517;53.546;10.104;2024-01-30T13:47:34;13.57;;;10.60;;
11220;SDS011;8517;53.546;10.104;2024-01-30T13:50:01;14.13;;;10.40;;
11220;SDS011;8517;53.546;10.104;2024-01-30T13:52:28;13.37;;;10.23;;
11220;SDS011;8517;53.546;10.104;2024-01-30T13:54:55;18.67;;;12.00;;
11220;SDS011;8517;53.546;10.104;2024-01-30T13:57:23;14.10;;;10.90;;
11220;SDS011;8517;53.546;10.104;2024-01-30T13:59:52;22.03;;;11.13;;
11220;SDS011;8517;53.546;10.104;2024-01-30T14:02:19;14.50;;;10.93;;
11220;SDS011;8517;53.546;10.104;2024-01-30T14:04:46;15.70;;;10.90;;
11220;SDS011;8517;53.546;10.104;2024-01-30T14:07:21;16.27;;;11.80;;
11220;SDS011;8517;53.546;10.104;2024-01-30T14:09:48;18.57;;;11.70;;
11220;SDS011;8517;53.546;10.104;2024-01-30T14:12:15;13.07;;;10.40;;
11220;SDS011;8517;53.546;10.104;2024-01-30T14:14:44;14.73;;;11.00;;
11220;SDS011;8517;53.546;10.104;2024-01-30T14:17:10;13.83;;;10.87;;
11220;SDS011;8517;53.546;10.104;2024-01-30T14:19:37;18.73;;;11.00;;
11220;SDS011;8517;53.546;10.104;2024-01-30T14:22:04;13.10;;;10.17;;
11220;SDS011;8517;53.546;10.104;2024-01-30T14:24:32;15.40;;;10.07;;
11220;SDS011;8517;53.546;10.104;2024-01-30T14:26:58;15.37;;;10.93;;
11220;SDS011;8517;53.546;10.104;2024-01-30T14:29:25;12.30;;;9.97;;
11220;SDS011;8517;53.546;10.104;2024-01-30T14:31:53;15.93;;;10.43;;
11220;SDS011;8517;53.546;10.104;2024-01-30T14:34:21;15.70;;;11.83;;
11220;SDS011;8517;53.546;10.104;2024-01-30T14:36:48;20.17;;;13.57;;
11220;SDS011;8517;53.546;10.104;2024-01-30T14:39:15;17.20;;;12.67;;
11220;SDS011;8517;53.546;10.104;2024-01-30T14:41:43;16.67;;;12.70;;